Evans, CO (80620)

08:42 MDT 28. Srpen 2015 (GMT -0600)
Ross Hall - UNC | | Change Station
CLOSE
Current Station
Osobní povětrnostní stanice
Location: Greeley, CO
Nadmořská výška: 4790 ft
Poblíž povětrnostní stanice

Výška 4790 ft 40.40 °N, 104.70 °W | Updated 52 seconds ago

Skoro zataženo
Skoro zataženo
65.7 °F
Pocit jako 65.7 °F
S
1.0
Vítr proměnlivý Vítr od JJZ
Gusts 1.0 mil/h

Dnes
Vysoké -- | Nízké -- °F
--% Možnost srážek
Včera
Vysoké -- | Nízké -- °F
Precip. -- inčů
6:22 AM 7:37 PM
Dorůstající měsíc, 98% visible
Tlak 30.21 inčů
Viditelnost 10.0 mílí
Zataženo Nemnoho 11000 ft
Rosný bod 54 °F
Vlhkost 66%
Dešťové srážky inčů
Sněhová pokrývka Není k dispozici
UV záření 2 ze 12
Pyl 10.10 ze 12
Kvalita ovzduší Není k dispozici
Flu Activity Není k dispozici
METAR KGXY 281435Z AUTO 26006KT 10SM FEW110 20/11 A3021 RMK AO1
Tlak 30.21 inčů
Viditelnost 10.0 mílí
Zataženo Nemnoho 11000 ft
Rosný bod 54 °F
Vlhkost 66%
Dešťové srážky inčů
Sněhová pokrývka Není k dispozici
UV záření 2 ze 12
Pyl 10.10 ze 12
Kvalita ovzduší Není k dispozici
Flu Activity Není k dispozici
METAR KGXY 281435Z AUTO 26006KT 10SM FEW110 20/11 A3021 RMK AO1

10-Day Weather Forecast

×

Almanac

Astronomie

Aug. 28, 2015 Východ Západ
Skutečný čas
Občanský soumrak
Námořní soumrak
Astronomický soumrak
Měsíc
Délka denního světla
Délka dne
Tomorrow will be .
, % of the Moon is Illuminated

Dnešní extrémy

State Highs State Lows

Community

WunderPhotos

Upload Photos

1,850,387 snímků staženo!

WunderBlogs® & News

Nearby

Kvalita ovzduší

  Kvalita ovzduší Index kvality ovzduší Polutant
Not available.

Výška sněhu

Station Hloubka Nadmořská výška

Seizmická činnost

Město Distance Mag. Čas & datum
Minimální zobrazený rozsah je 2.5.

Pobřežní teplota vody

Lokalita Teplota

Stations

Poblíž povětrnostní stanice

Lokace stanice Tepl. Ochlazování větrem Rosný bod Vlhkost Vítr Precip. Výška Čas hlášení Typ